sensor_id;sensor_type;location;lat;lon;timestamp;P1;durP1;ratioP1;P2;durP2;ratioP2
72674;SDS011;60752;53.962;9.614;2023-06-26T00:05:05;7.13;;;3.50;;
72674;SDS011;60752;53.962;9.614;2023-06-26T00:35:07;7.17;;;3.57;;
72674;SDS011;60752;53.962;9.614;2023-06-26T01:05:09;6.57;;;3.87;;
72674;SDS011;60752;53.962;9.614;2023-06-26T01:35:11;7.17;;;4.57;;
72674;SDS011;60752;53.962;9.614;2023-06-26T02:05:13;9.48;;;4.97;;
72674;SDS011;60752;53.962;9.614;2023-06-26T02:35:14;9.10;;;5.73;;
72674;SDS011;60752;53.962;9.614;2023-06-26T03:05:16;9.80;;;6.40;;
72674;SDS011;60752;53.962;9.614;2023-06-26T03:35:17;10.23;;;6.37;;
72674;SDS011;60752;53.962;9.614;2023-06-26T04:05:19;11.00;;;7.57;;
72674;SDS011;60752;53.962;9.614;2023-06-26T04:35:21;12.25;;;6.60;;
72674;SDS011;60752;53.962;9.614;2023-06-26T05:05:22;13.90;;;7.70;;
72674;SDS011;60752;53.962;9.614;2023-06-26T05:35:24;16.07;;;8.17;;
72674;SDS011;60752;53.962;9.614;2023-06-26T06:05:28;14.13;;;6.80;;
72674;SDS011;60752;53.962;9.614;2023-06-26T06:35:30;11.30;;;6.33;;
72674;SDS011;60752;53.962;9.614;2023-06-26T07:05:31;10.60;;;5.55;;
72674;SDS011;60752;53.962;9.614;2023-06-26T07:35:33;7.63;;;5.10;;
72674;SDS011;60752;53.962;9.614;2023-06-26T08:05:35;8.60;;;5.10;;
72674;SDS011;60752;53.962;9.614;2023-06-26T08:35:36;9.70;;;5.83;;
72674;SDS011;60752;53.962;9.614;2023-06-26T09:05:38;12.77;;;7.53;;
72674;SDS011;60752;53.962;9.614;2023-06-26T09:35:40;9.77;;;4.95;;
72674;SDS011;60752;53.962;9.614;2023-06-26T10:05:41;9.83;;;4.50;;
72674;SDS011;60752;53.962;9.614;2023-06-26T10:35:44;9.00;;;4.50;;
72674;SDS011;60752;53.962;9.614;2023-06-26T11:05:45;12.23;;;4.23;;
72674;SDS011;60752;53.962;9.614;2023-06-26T11:36:10;5.23;;;1.67;;
72674;SDS011;60752;53.962;9.614;2023-06-26T12:06:11;6.57;;;1.70;;
72674;SDS011;60752;53.962;9.614;2023-06-26T12:36:13;8.07;;;1.97;;
72674;SDS011;60752;53.962;9.614;2023-06-26T13:06:15;4.80;;;1.60;;
72674;SDS011;60752;53.962;9.614;2023-06-26T13:36:17;6.63;;;1.50;;
72674;SDS011;60752;53.962;9.614;2023-06-26T14:06:19;6.00;;;1.60;;
72674;SDS011;60752;53.962;9.614;2023-06-26T14:36:20;5.95;;;1.23;;
72674;SDS011;60752;53.962;9.614;2023-06-26T15:06:22;6.03;;;2.50;;
72674;SDS011;60752;53.962;9.614;2023-06-26T15:36:23;4.63;;;1.90;;
72674;SDS011;60752;53.962;9.614;2023-06-26T16:06:25;7.87;;;2.13;;
72674;SDS011;60752;53.962;9.614;2023-06-26T16:36:27;7.33;;;2.23;;
72674;SDS011;60752;53.962;9.614;2023-06-26T17:06:28;8.30;;;1.70;;
72674;SDS011;60752;53.962;9.614;2023-06-26T17:36:30;5.13;;;1.37;;
72674;SDS011;60752;53.962;9.614;2023-06-26T18:06:32;5.80;;;1.43;;
72674;SDS011;60752;53.962;9.614;2023-06-26T18:36:33;8.93;;;1.90;;
72674;SDS011;60752;53.962;9.614;2023-06-26T19:06:35;6.33;;;1.70;;
72674;SDS011;60752;53.962;9.614;2023-06-26T19:36:37;9.45;;;2.17;;
72674;SDS011;60752;53.962;9.614;2023-06-26T20:06:38;9.73;;;2.03;;
72674;SDS011;60752;53.962;9.614;2023-06-26T20:36:40;9.00;;;2.30;;
72674;SDS011;60752;53.962;9.614;2023-06-26T21:06:41;9.00;;;2.20;;
72674;SDS011;60752;53.962;9.614;2023-06-26T21:36:43;10.10;;;3.63;;
72674;SDS011;60752;53.962;9.614;2023-06-26T22:06:45;6.97;;;2.20;;
72674;SDS011;60752;53.962;9.614;2023-06-26T22:36:46;8.27;;;2.63;;
72674;SDS011;60752;53.962;9.614;2023-06-26T23:06:48;6.93;;;2.20;;
72674;SDS011;60752;53.962;9.614;2023-06-26T23:36:50;6.10;;;2.03;;
